Data for 08/16/2017

Time Sea-Level Adjusted Pressure Absolute Pressure Temperature Relative Humidity Dew Point   
(mb) (inHg) (mb) (inHg) (C) (F) (%) (C) (F)
00:05 1018 30.06 847 25.01 14.2 57.6 45 2.7 36.9
00:10 1018 30.06 847 25.01 14.2 57.5 47 3.2 37.7
00:15 1018 30.06 847 25.01 14 57.3 49 3.5 38.2
00:20 1018 30.06 847 25.01 14 57.3 51 4 39.2
00:25 1018 30.06 847 25.01 13.7 56.7 52 4.1 39.4
00:30 1018 30.06 847 25.01 13.6 56.4 51 3.8 38.8
00:35 1018 30.06 847 25.01 13.7 56.7 51 3.9 39
00:40 1018 30.06 847 25.01 13.7 56.6 52 4 39.1
00:45 1018 30.06 847 25.01 13.7 56.6 52 4.1 39.3
00:50 1018 30.06 847 25.01 13.5 56.4 52 4.1 39.3
00:55 1018 30.06 847 25.01 13.1 55.7 54 4.1 39.3
01:00 1018 30.06 847 25.01 12.9 55.2 54 3.9 39.1
01:05 1018 30.06 847 25.01 12.6 54.7 56 4 39.2
01:10 1018 30.06 847 25.01 12.4 54.3 56 3.8 38.8
01:15 1018 30.06 848 25.04 12.5 54.4 51 2.7 36.9
01:20 1018 30.06 848 25.04 12.7 54.9 50 2.5 36.5
01:25 1018 30.06 848 25.04 12.9 55.3 49 2.6 36.8
01:30 1018 30.06 848 25.04 13 55.5 52 3.5 38.3
01:35 1018 30.06 848 25.04 12.8 55 54 3.9 38.9
01:40 1018 30.06 848 25.04 12.6 54.6 55 3.8 38.9
01:45 1018 30.06 847 25.01 12.3 54.2 56 3.7 38.7
01:50 1018 30.06 847 25.01 12.1 53.9 56 3.7 38.7
01:55 1018 30.06 847 25.01 12 53.6 57 3.7 38.6
02:00 1018 30.06 848 25.04 12 53.6 55 3.2 37.8
02:05 1018 30.06 848 25.04 12.1 53.7 54 3.1 37.5
02:10 1018 30.06 848 25.04 12.3 54.2 52 2.9 37.3
02:15 1018 30.06 848 25.04 12.5 54.5 52 3 37.4
02:20 1018 30.06 848 25.04 12.5 54.5 52 3.1 37.5
02:25 1018 30.06 848 25.04 12.2 53.9 50 2.1 35.7
02:30 1018 30.06 848 25.04 12.3 54.1 50 2.2 36
02:35 1018 30.06 848 25.04 12.1 53.8 51 2.3 36.2
02:40 1018 30.06 848 25.04 12.1 53.7 51 2.4 36.3
02:45 1018 30.06 848 25.04 11.9 53.4 54 2.9 37.3
02:50 1018 30.06 848 25.04 11.5 52.8 55 2.9 37.3
02:55 1018 30.06 848 25.04 11.5 52.6 54 2.6 36.7
03:00 1018 30.06 848 25.04 11.7 53 54 2.8 37
03:05 1018 30.06 848 25.04 11.6 52.8 54 2.7 36.8
03:10 1018 30.06 848 25.04 11.6 52.8 54 2.6 36.6
03:15 1018 30.06 848 25.04 11.7 53.1 51 2.1 35.7
03:20 1019 30.09 848 25.04 11.9 53.4 52 2.3 36.2
03:25 1019 30.09 848 25.04 12 53.7 49 1.8 35.3
03:30 1019 30.09 848 25.04 12.2 53.9 50 2 35.6
03:35 1019 30.09 848 25.04 12.4 54.3 49 2.1 35.9
03:40 1019 30.09 848 25.04 12.4 54.2 51 2.5 36.5
03:45 1019 30.09 848 25.04 12.2 54 50 2.1 35.8
03:50 1019 30.09 848 25.04 12.4 54.4 49 2.2 36
03:55 1019 30.09 848 25.04 12.4 54.4 49 2.1 35.8
04:00 1019 30.09 848 25.04 12.4 54.4 50 2.3 36.1
04:05 1019 30.09 848 25.04 12.4 54.3 50 2.2 36
04:10 1019 30.09 848 25.04 12.3 54.1 49 2.1 35.7
04:15 1019 30.09 848 25.04 12.4 54.3 49 2.2 35.9
04:20 1019 30.09 848 25.04 12.3 54.1 50 2.2 36
04:25 1019 30.09 848 25.04 12 53.7 52 2.4 36.3
04:30 1019 30.09 848 25.04 11.8 53.2 53 2.6 36.6
04:35 1019 30.09 848 25.04 11.5 52.6 55 2.7 36.8
04:40 1019 30.09 848 25.04 11.3 52.4 53 2.2 36
04:45 1019 30.09 848 25.04 11.4 52.5 54 2.5 36.5
04:50 1019 30.09 848 25.04 11.2 52.2 55 2.4 36.4
04:55 1019 30.09 848 25.04 11.1 52 55 2.5 36.5
05:00 1019 30.09 848 25.04 11 51.8 55 2.4 36.3
05:05 1019 30.09 848 25.04 11.2 52.1 53 2.1 35.7
05:10 1019 30.09 848 25.04 11.2 52.1 55 2.5 36.4
05:15 1019 30.09 848 25.04 11 51.8 55 2.2 36
05:20 1019 30.09 848 25.04 11.1 51.9 53 1.9 35.5
05:25 1019 30.09 848 25.04 11.4 52.4 52 1.9 35.5
05:30 1019 30.09 848 25.04 11.3 52.3 53 2.1 35.8
05:35 1019 30.09 848 25.04 11.1 52 52 1.7 35.1
05:40 1019 30.09 848 25.04 11.3 52.4 52 1.8 35.2
05:45 1019 30.09 848 25.04 11.3 52.3 53 2 35.6
05:50 1019 30.09 848 25.04 11.1 52 53 2.1 35.7
05:55 1019 30.09 848 25.04 11 51.8 54 2 35.7
06:00 1019 30.09 848 25.04 10.8 51.5 54 2 35.6
06:05 1019 30.09 849 25.07 10.8 51.5 54 1.9 35.5
06:10 1019 30.09 849 25.07 10.8 51.4 54 2 35.6
06:15 1019 30.09 849 25.07 10.7 51.3 54 1.8 35.3
06:20 1019 30.09 849 25.07 10.8 51.4 54 1.8 35.2
06:25 1019 30.09 849 25.07 10.8 51.5 54 2 35.5
06:30 1019 30.09 849 25.07 10.9 51.6 52 1.5 34.6
06:35 1019 30.09 849 25.07 11.2 52.1 52 1.7 35
06:40 1019 30.09 849 25.07 11.2 52.1 52 1.6 35
06:45 1019 30.09 849 25.07 11.1 52 52 1.5 34.8
06:50 1019 30.09 849 25.07 11.1 52 52 1.7 35
06:55 1019 30.09 849 25.07 11.1 52 52 1.6 34.8
07:00 1020 30.12 849 25.07 11.3 52.4 51 1.5 34.6
07:05 1020 30.12 849 25.07 11.5 52.6 51 1.8 35.3
07:10 1020 30.12 849 25.07 11.3 52.4 51 1.5 34.7
07:15 1020 30.12 849 25.07 11.7 53 49 1.2 34.2
07:20 1020 30.12 849 25.07 12 53.6 48 1.4 34.6
07:25 1020 30.12 849 25.07 12.3 54.1 48 1.6 34.9
07:30 1020 30.12 849 25.07 12.3 54.1 49 1.8 35.3
07:35 1020 30.12 849 25.07 12.3 54.2 48 1.8 35.2
07:40 1020 30.12 849 25.07 12.5 54.4 49 2.1 35.8
07:45 1020 30.12 849 25.07 12.4 54.4 49 2 35.7
07:50 1020 30.12 849 25.07 12.6 54.6 49 2.2 35.9
07:55 1020 30.12 849 25.07 12.8 55.1 48 2.3 36.1
08:00 1020 30.12 849 25.07 12.9 55.3 49 2.4 36.3
08:05 1020 30.12 849 25.07 13.1 55.7 48 2.6 36.7
08:10 1020 30.12 849 25.07 13.3 56 48 2.7 36.9
08:15 1020 30.12 849 25.07 13.6 56.5 48 2.9 37.2
08:20 1020 30.12 849 25.07 13.8 56.8 47 2.7 36.9
08:25 1020 30.12 849 25.07 14.1 57.4 46 2.8 37.1
08:30 1020 30.12 849 25.07 14.6 58.3 46 3.2 37.8
08:35 1020 30.12 849 25.07 14.9 58.7 45 3.1 37.6
08:40 1020 30.12 849 25.07 15.2 59.4 44 3.1 37.7
08:45 1020 30.12 850 25.1 15.7 60.3 43 3.2 37.8
08:50 1020 30.12 850 25.1 16 60.7 44 4 39.1
08:55 1020 30.12 850 25.1 16.4 61.6 42 3.5 38.4
09:00 1020 30.12 850 25.1 16.5 61.8 43 3.9 39
09:05 1020 30.12 850 25.1 17.1 62.8 37 2.3 36.1
09:10 1020 30.12 850 25.1 17.4 63.4 36 2.5 36.5
09:15 1020 30.12 850 25.1 17.7 63.8 34 1.7 35
09:20 1020 30.12 850 25.1 18.5 65.2 32 1.6 34.8
09:25 1020 30.12 850 25.1 18.3 65 38 3.8 38.9
09:30 1020 30.12 850 25.1 18.7 65.7 33 2.4 36.4
09:35 1020 30.12 850 25.1 17.9 64.3 35 2.3 36.2
09:40 1020 30.12 850 25.1 17.7 63.9 35 2.4 36.3
09:45 1021 30.15 850 25.1 18.2 64.7 33 1.9 35.4
09:50 1021 30.15 850 25.1 18.5 65.3 33 2 35.6
09:55 1021 30.15 850 25.1 19.2 66.6 31 1.8 35.2
10:00 1021 30.15 850 25.1 18.9 66.1 32 2 35.7
10:05 1021 30.15 850 25.1 18.9 66 33 2.6 36.6
10:10 1021 30.15 850 25.1 19.1 66.3 33 2.7 36.9
10:15 1021 30.15 850 25.1 19.3 66.8 33 3 37.3
10:20 1021 30.15 850 25.1 19.8 67.7 34 3.5 38.3
10:25 1021 30.15 850 25.1 19.7 67.4 33 2.9 37.2
10:30 1021 30.15 850 25.1 19.1 66.4 33 2.7 36.9
10:35 1021 30.15 850 25.1 20 68 33 3.6 38.4
10:40 1021 30.15 850 25.1 19.7 67.4 33 3.1 37.6
10:45 1021 30.15 850 25.1 20 67.9 32 3 37.3
10:50 1021 30.15 850 25.1 20.5 68.9 31 3.1 37.5
10:55 1021 30.15 850 25.1 21 69.8 30 2.8 37
11:00 1021 30.15 850 25.1 21.1 70 27 1.8 35.3
11:05 1020 30.12 850 25.1 21.4 70.5 28 2.6 36.6
11:10 1020 30.12 850 25.1 21.6 70.8 28 2.5 36.5
11:15 1020 30.12 850 25.1 21.8 71.3 28 2.9 37.2
11:20 1020 30.12 850 25.1 20.7 69.2 29 2.4 36.2
11:25 1020 30.12 850 25.1 20.5 68.8 30 2.2 36
11:30 1020 30.12 849 25.07 21.5 70.7 27 2 35.6
11:35 1020 30.12 849 25.07 21.4 70.5 28 2.1 35.8
11:40 1020 30.12 850 25.1 21.7 71 27 1.9 35.5
11:45 1020 30.12 850 25.1 22.1 71.7 25 1.3 34.3
11:50 1020 30.12 849 25.07 21.9 71.5 26 1.6 34.9
11:55 1020 30.12 849 25.07 22.2 71.9 25 1.4 34.5
12:00 1020 30.12 849 25.07 22.6 72.7 26 2.1 35.8
12:05 1020 30.12 849 25.07 22.1 71.8 25 1.6 34.9
12:10 1020 30.12 849 25.07 22.2 72 26 2 35.7
12:15 1020 30.12 849 25.07 23.3 73.9 24 1.8 35.2
12:20 1020 30.12 849 25.07 23.4 74.2 23 1.6 34.9
12:25 1020 30.12 849 25.07 23.5 74.3 24 2 35.6
12:30 1020 30.12 849 25.07 23.3 74 24 1.7 35
12:35 1020 30.12 849 25.07 23.6 74.5 24 2.1 35.7
12:40 1020 30.12 849 25.07 24 75.2 24 2.2 35.9
12:45 1020 30.12 849 25.07 24.5 76.1 22 1.9 35.4
12:50 1020 30.12 849 25.07 25.3 77.5 23 2.7 36.8
12:55 1020 30.12 849 25.07 24.9 76.8 23 2.6 36.6
13:00 1020 30.12 849 25.07 25.4 77.7 21 1.8 35.2
13:05 1020 30.12 849 25.07 25.1 77.1 23 2.6 36.7
13:10 1020 30.12 849 25.07 24 75.3 22 1.3 34.4
13:15 1020 30.12 849 25.07 25 77 23 2.6 36.6
13:20 1020 30.12 849 25.07 25.2 77.3 21 1.8 35.3
13:25 1020 30.12 849 25.07 24.8 76.6 22 2.1 35.7
13:30 1019 30.09 849 25.07 25.3 77.6 20 1.3 34.4
13:35 1019 30.09 849 25.07 25.9 78.5 19 0.9 33.6
13:40 1019 30.09 849 25.07 25.4 77.8 22 2.1 35.9
13:45 1019 30.09 848 25.04 25.3 77.6 20 0.9 33.6
13:50 1019 30.09 848 25.04 24.8 76.6 20 0.5 32.9
13:55 1019 30.09 848 25.04 25.4 77.8 20 0.8 33.4
14:00 1019 30.09 848 25.04 25.9 78.6 18 0.3 32.6
14:05 1019 30.09 848 25.04 26.2 79.2 19 0.7 33.3
14:10 1019 30.09 848 25.04 25.7 78.3 20 1.3 34.3
14:15 1019 30.09 848 25.04 25.9 78.7 19 1.1 34
14:20 1019 30.09 848 25.04 26 78.8 19 1 33.9
14:25 1019 30.09 848 25.04 25.4 77.7 22 2.6 36.7
14:30 1019 30.09 848 25.04 26.3 79.3 18 0.3 32.6
14:35 1019 30.09 848 25.04 26.7 80.1 18 0.8 33.5
14:40 1019 30.09 848 25.04 27 80.6 18 1.1 34
14:45 1019 30.09 848 25.04 27.5 81.4 18 1.1 33.9
14:50 1018 30.06 848 25.04 27.5 81.4 18 1.5 34.8
14:55 1018 30.06 848 25.04 27.1 80.7 19 1.7 35
15:00 1018 30.06 848 25.04 27.1 80.7 19 2 35.6
15:05 1018 30.06 847 25.01 27.3 81.1 18 1.2 34.1
15:10 1018 30.06 847 25.01 27.6 81.6 17 0.9 33.6
15:15 1018 30.06 847 25.01 27.2 81 19 2 35.6
15:20 1018 30.06 847 25.01 27.4 81.2 18 1.2 34.1
15:25 1018 30.06 847 25.01 27.4 81.3 19 1.7 35
15:30 1018 30.06 847 25.01 26.3 79.4 20 1.5 34.7
15:35 1018 30.06 847 25.01 26.7 80 20 2.1 35.8
15:40 1018 30.06 847 25.01 26.7 80.1 18 0.9 33.7
15:45 1018 30.06 847 25.01 27.1 80.8 18 1 33.8
15:50 1018 30.06 847 25.01 27.4 81.3 18 1 33.7
15:55 1018 30.06 847 25.01 27.5 81.4 18 1.1 33.9
16:00 1018 30.06 847 25.01 27.2 80.9 18 0.8 33.5
16:05 1018 30.06 847 25.01 27.8 82.1 17 0.9 33.7
16:10 1018 30.06 847 25.01 27.2 80.9 18 1 33.7
16:15 1018 30.06 847 25.01 27.6 81.7 17 0.5 32.9
16:20 1018 30.06 847 25.01 27.5 81.6 18 1.3 34.3
16:25 1018 30.06 847 25.01 26.7 80.1 19 1.2 34.2
16:30 1018 30.06 847 25.01 27.4 81.4 19 2 35.5
16:35 1018 30.06 847 25.01 26.6 79.9 19 1.4 34.5
16:40 1018 30.06 847 25.01 26.5 79.6 20 2.2 35.9
16:45 1018 30.06 847 25.01 26.7 80 18 0.8 33.4
16:50 1018 30.06 847 25.01 26.6 79.9 20 1.9 35.4
16:55 1018 30.06 847 25.01 26.9 80.4 19 1.4 34.5
17:00 1018 30.06 847 25.01 26.8 80.2 20 2 35.6
17:05 1018 30.06 847 25.01 26.9 80.5 18 0.8 33.5
17:10 1018 30.06 847 25.01 26.8 80.2 20 2 35.6
17:15 1018 30.06 847 25.01 26.2 79.2 19 1.4 34.5
17:20 1018 30.06 847 25.01 26.2 79.2 19 1.3 34.3
17:25 1018 30.06 847 25.01 26.2 79.2 18 0.7 33.2
17:30 1018 30.06 847 25.01 26.1 79.1 18 0.4 32.7
17:35 1018 30.06 847 25.01 26.5 79.8 18 0.7 33.3
17:40 1018 30.06 847 25.01 26.4 79.6 19 1 33.7
17:45 1017 30.03 847 25.01 26.9 80.3 18 0.8 33.4
17:50 1017 30.03 847 25.01 27.3 81.1 16 -0 31.9
17:55 1017 30.03 847 25.01 27 80.6 18 0.7 33.3
18:00 1017 30.03 847 25.01 27.3 81.2 17 0.2 32.4
18:05 1017 30.03 847 25.01 27.4 81.3 18 1.1 34
18:10 1017 30.03 846 24.98 27 80.6 17 0.1 32.2
18:15 1017 30.03 846 24.98 26.5 79.7 18 0.6 33
18:20 1017 30.03 846 24.98 26.4 79.5 17 -0.3 31.4
18:25 1017 30.03 846 24.98 26.2 79.1 17 -0.3 31.5
18:30 1017 30.03 846 24.98 26 78.9 18 -0.2 31.7
18:35 1017 30.03 846 24.98 25.9 78.6 17 -0.4 31.2
18:40 1017 30.03 846 24.98 25.7 78.3 18 0.2 32.4
18:45 1017 30.03 846 24.98 25.4 77.7 20 0.8 33.4
18:50 1017 30.03 846 24.98 25.3 77.6 21 1.7 35.1
18:55 1017 30.03 846 24.98 25.3 77.5 20 1.3 34.4
19:00 1017 30.03 846 24.98 25.2 77.4 21 1.8 35.3
19:05 1017 30.03 846 24.98 25.1 77.2 20 1.1 34
19:10 1017 30.03 846 24.98 25.2 77.3 19 0 32.1
19:15 1017 30.03 846 24.98 25 77 20 0.8 33.4
19:20 1017 30.03 846 24.98 24.9 76.8 19 0.2 32.4
19:25 1017 30.03 846 24.98 24.9 76.7 26 4.4 39.8
19:30 1017 30.03 846 24.98 24.7 76.4 23 2.6 36.7
19:35 1017 30.03 846 24.98 24.6 76.3 27 4.7 40.5
19:40 1017 30.03 846 24.98 24.4 75.9 29 5.2 41.4
19:45 1017 30.03 846 24.98 24.2 75.5 27 4.3 39.8
19:50 1017 30.03 846 24.98 24 75.2 28 4.5 40.1
19:55 1017 30.03 846 24.98 24 75.2 29 4.9 40.8
20:00 1017 30.03 846 24.98 23.8 74.9 31 5.7 42.2
20:05 1017 30.03 846 24.98 23.5 74.4 31 5.6 42.1
20:10 1017 30.03 846 24.98 23.4 74 31 5.3 41.5
20:15 1017 30.03 846 24.98 23 73.4 33 5.9 42.5
20:20 1017 30.03 846 24.98 22.5 72.5 33 5.5 41.8
20:25 1017 30.03 846 24.98 22.1 71.7 33 5.4 41.8
20:30 1017 30.03 846 24.98 21.7 71.1 35 5.8 42.4
20:35 1017 30.03 846 24.98 21.5 70.6 34 5 41
20:40 1017 30.03 846 24.98 21.2 70.2 35 5.2 41.4
20:45 1017 30.03 847 25.01 21.1 69.9 34 4.9 40.7
20:50 1017 30.03 847 25.01 20.9 69.5 36 5.3 41.6
20:55 1017 30.03 847 25.01 20.4 68.8 38 5.6 42.1
21:00 1017 30.03 847 25.01 20.1 68.1 42 6.8 44.2
21:05 1017 30.03 847 25.01 19.7 67.5 41 6.1 43
21:10 1017 30.03 847 25.01 19.5 67.2 39 5.2 41.4
21:15 1017 30.03 847 25.01 19.6 67.2 36 4.3 39.7
21:20 1018 30.06 847 25.01 19.6 67.3 39 5.4 41.7
21:25 1018 30.06 847 25.01 19.4 66.9 38 5 41
21:30 1018 30.06 847 25.01 19.1 66.4 37 4.3 39.7
21:35 1018 30.06 847 25.01 19.1 66.4 36 3.9 38.9
21:40 1018 30.06 847 25.01 19.3 66.7 36 3.9 39.1
21:45 1018 30.06 847 25.01 19.5 67 37 4.4 40
21:50 1018 30.06 847 25.01 19.5 67 38 4.9 40.7
21:55 1018 30.06 847 25.01 19.5 67.2 38 5 41
22:00 1018 30.06 847 25.01 19.5 67.1 37 4.6 40.3
22:05 1018 30.06 847 25.01 19.5 67.1 33 3.1 37.6
22:10 1018 30.06 847 25.01 20 67.9 34 3.7 38.6
22:15 1018 30.06 848 25.04 19.9 67.7 37 4.9 40.8
22:20 1018 30.06 848 25.04 19.3 66.7 39 5.3 41.6
22:25 1018 30.06 848 25.04 19.2 66.6 36 3.8 38.9
22:30 1018 30.06 848 25.04 19.6 67.2 37 4.5 40.1
22:35 1019 30.09 848 25.04 19 66.2 40 5.3 41.5
22:40 1019 30.09 848 25.04 18.2 64.8 42 5.3 41.6
22:45 1019 30.09 848 25.04 18 64.4 42 5 41
22:50 1019 30.09 848 25.04 18.2 64.7 41 4.8 40.7
22:55 1019 30.09 848 25.04 18.2 64.8 41 4.8 40.7
23:00 1019 30.09 848 25.04 18.4 65.1 39 4.5 40.1
23:05 1019 30.09 848 25.04 18.4 65.2 41 5.1 41.2
23:10 1019 30.09 848 25.04 18 64.3 43 5.3 41.6
23:15 1019 30.09 848 25.04 17.6 63.6 44 5.3 41.5
23:20 1019 30.09 848 25.04 17.4 63.4 44 5.1 41.2
23:25 1019 30.09 848 25.04 17.4 63.2 45 5.4 41.7
23:30 1019 30.09 848 25.04 16.9 62.5 46 5.2 41.4
23:35 1019 30.09 848 25.04 16.7 62 47 5.3 41.5
23:40 1019 30.09 848 25.04 16.2 61.1 50 5.8 42.4
23:45 1019 30.09 848 25.04 15.6 60.1 52 5.9 42.6
23:50 1019 30.09 848 25.04 15.5 59.8 50 5.3 41.5
23:55 1019 30.09 848 25.04 15.7 60.2 49 5 41.1
24:00 1019 30.09 848 25.04 15.9 60.6 47 4.7 40.5